Time;durP1;ratioP1;P1;durP2;ratioP2;P2;SDS_P1;SDS_P2;PMS_P1;PMS_P2;Temp;Humidity;BMP_temperature;BMP_pressure;BME280_temperature;BME280_humidity;BME280_pressure;Samples;Min_cycle;Max_cycle;Signal;HPM_P1;HPM_P2
2021/12/20 00:03:03;;;;;;;22.97;19.87;;;7.40;99.90;;;;;;10505642;28;20208;-80
2021/12/20 00:08:07;;;;;;;20.60;18.47;;;7.30;99.90;;;;;;10504073;28;20236;-80
2021/12/20 00:13:10;;;;;;;22.87;20.37;;;7.30;99.90;;;;;;10501811;28;20195;-80
2021/12/20 00:18:12;;;;;;;19.63;17.60;;;7.30;99.90;;;;;;10483367;28;20216;-79
2021/12/20 00:23:15;;;;;;;20.63;18.53;;;7.30;99.90;;;;;;10502320;28;20207;-80
2021/12/20 00:28:19;;;;;;;22.53;20.23;;;7.40;99.90;;;;;;10502397;28;20698;-78
2021/12/20 00:33:21;;;;;;;21.53;19.27;;;7.40;99.90;;;;;;10500321;28;20647;-78
2021/12/20 00:43:45;;;;;;;21.30;19.20;;;7.50;99.90;;;;;;10505517;28;20510;-78
2021/12/20 00:48:47;;;;;;;20.43;18.33;;;7.50;99.90;;;;;;10502150;28;20311;-80
2021/12/20 00:53:50;;;;;;;20.07;18.07;;;7.50;99.90;;;;;;10501202;28;20233;-80
2021/12/20 00:58:52;;;;;;;19.93;17.93;;;7.50;99.90;;;;;;10501929;28;20217;-79
2021/12/20 01:03:54;;;;;;;20.80;18.60;;;7.50;99.90;;;;;;10498927;28;20308;-79
2021/12/20 01:08:58;;;;;;;20.40;18.40;;;7.40;99.90;;;;;;10498799;28;20212;-78
2021/12/20 01:14:00;;;;;;;20.27;18.27;;;7.50;99.90;;;;;;10500610;28;20200;-78
2021/12/20 01:19:02;;;;;;;21.60;19.30;;;7.40;99.90;;;;;;10482772;28;20212;-78
2021/12/20 01:24:06;;;;;;;21.53;19.30;;;7.40;99.90;;;;;;10499300;28;20208;-79
2021/12/20 01:29:08;;;;;;;21.20;19.00;;;7.40;99.90;;;;;;10482222;28;20221;-79
2021/12/20 01:34:10;;;;;;;22.27;20.00;;;7.40;99.90;;;;;;10500296;28;20645;-78
2021/12/20 01:39:14;;;;;;;23.37;20.87;;;7.40;99.90;;;;;;10500379;28;20231;-79
2021/12/20 01:44:17;;;;;;;21.13;19.07;;;7.30;99.90;;;;;;10498724;28;20303;-80
2021/12/20 01:49:19;;;;;;;20.80;18.27;;;7.30;99.90;;;;;;10497631;28;20209;-80
2021/12/20 01:54:23;;;;;;;22.67;19.40;;;7.30;99.90;;;;;;10497493;28;20608;-80
2021/12/20 01:59:25;;;;;;;18.20;16.30;;;7.20;99.90;;;;;;10478416;28;20573;-79
2021/12/20 02:04:27;;;;;;;18.90;17.00;;;7.10;99.90;;;;;;10493367;28;20590;-79
2021/12/20 02:09:31;;;;;;;18.73;16.80;;;7.10;99.90;;;;;;10495832;28;20722;-80
2021/12/20 02:14:33;;;;;;;18.33;16.43;;;7.10;99.90;;;;;;10500012;28;20217;-80
2021/12/20 02:19:38;;;;;;;18.47;16.57;;;7.00;99.90;;;;;;10499528;28;20216;-79
2021/12/20 02:24:42;;;;;;;17.97;16.10;;;7.00;99.90;;;;;;10498287;28;20624;-79
2021/12/20 02:29:58;;;;;;;19.20;17.20;;;6.90;99.90;;;;;;10498039;28;20212;-78
2021/12/20 02:40:22;;;;;;;21.80;18.70;;;6.80;99.90;;;;;;10488648;28;20755;-80
2021/12/20 02:45:30;;;;;;;20.67;18.47;;;6.80;99.90;;;;;;10505949;28;20223;-78
2021/12/20 02:50:32;;;;;;;19.60;17.53;;;6.80;99.90;;;;;;10506648;28;20193;-80
2021/12/20 02:55:36;;;;;;;22.00;19.53;;;6.80;99.90;;;;;;10505203;28;20196;-79
2021/12/20 03:00:38;;;;;;;18.60;16.57;;;6.80;99.90;;;;;;10504794;28;20193;-78
2021/12/20 03:05:40;;;;;;;19.47;17.30;;;6.80;99.90;;;;;;10506738;28;20212;-80
2021/12/20 03:10:44;;;;;;;21.83;19.53;;;6.80;99.90;;;;;;10506667;28;20584;-80
2021/12/20 03:15:46;;;;;;;18.80;16.80;;;6.80;99.90;;;;;;10506720;28;20236;-80
2021/12/20 03:20:48;;;;;;;20.83;18.13;;;6.90;99.90;;;;;;10506731;28;20185;-80
2021/12/20 03:25:51;;;;;;;21.70;19.33;;;6.80;99.90;;;;;;10505284;28;20237;-80
2021/12/20 03:30:54;;;;;;;25.23;22.50;;;6.90;99.90;;;;;;10505871;28;20193;-79
2021/12/20 03:35:56;;;;;;;26.33;23.07;;;6.90;99.90;;;;;;10504943;28;20283;-79
2021/12/20 03:40:59;;;;;;;26.50;22.00;;;6.90;99.90;;;;;;10506417;28;20281;-80
2021/12/20 03:46:01;;;;;;;25.80;21.47;;;7.00;99.90;;;;;;10504290;28;20613;-78
2021/12/20 03:51:05;;;;;;;24.67;20.60;;;7.00;99.90;;;;;;10505444;28;20196;-79
2021/12/20 03:56:09;;;;;;;24.93;21.33;;;7.10;99.90;;;;;;10505540;28;20566;-80
2021/12/20 04:01:14;;;;;;;24.23;19.00;;;7.00;99.90;;;;;;10505082;28;20208;-80
2021/12/20 04:06:16;;;;;;;23.73;19.73;;;6.90;99.90;;;;;;10505124;28;20224;-80
2021/12/20 04:11:20;;;;;;;25.77;21.40;;;6.70;99.90;;;;;;10506758;28;20235;-79
2021/12/20 04:16:22;;;;;;;28.17;22.07;;;6.70;99.90;;;;;;10506417;28;20223;-80
2021/12/20 04:21:24;;;;;;;25.23;20.87;;;6.60;99.90;;;;;;10504696;28;20585;-80
2021/12/20 04:26:27;;;;;;;25.00;21.50;;;6.60;99.90;;;;;;10509558;28;20227;-80
2021/12/20 04:31:31;;;;;;;25.70;21.07;;;6.60;99.90;;;;;;10507221;28;20193;-80
2021/12/20 04:36:34;;;;;;;27.30;20.27;;;6.60;99.90;;;;;;10509191;28;20254;-79
2021/12/20 04:41:38;;;;;;;23.97;21.20;;;6.60;99.90;;;;;;10499799;28;20298;-80
2021/12/20 04:46:40;;;;;;;24.77;20.57;;;6.60;99.90;;;;;;10498685;28;20265;-79
2021/12/20 04:51:42;;;;;;;22.03;19.10;;;6.60;99.90;;;;;;10503138;28;20603;-80
2021/12/20 04:56:46;;;;;;;23.47;19.70;;;6.60;99.90;;;;;;10501907;28;20246;-80
2021/12/20 05:01:48;;;;;;;21.80;19.50;;;6.50;99.90;;;;;;10498925;28;20292;-79
2021/12/20 05:06:50;;;;;;;22.90;19.83;;;6.60;99.90;;;;;;10499723;28;20216;-80
2021/12/20 05:12:01;;;;;;;22.67;19.97;;;6.60;99.90;;;;;;10501569;28;20217;-80
2021/12/20 05:17:03;;;;;;;23.43;19.83;;;6.60;99.90;;;;;;10499824;28;20209;-79
2021/12/20 05:22:06;;;;;;;23.20;19.23;;;6.50;99.90;;;;;;10501312;28;20641;-80
2021/12/20 05:27:09;;;;;;;21.43;18.40;;;6.50;99.90;;;;;;10497816;28;20235;-79
2021/12/20 05:32:11;;;;;;;22.67;18.33;;;6.60;99.90;;;;;;10499221;28;20196;-80
2021/12/20 05:37:15;;;;;;;20.80;18.20;;;6.60;99.90;;;;;;10501769;28;20204;-80
2021/12/20 05:42:19;;;;;;;22.13;17.13;;;6.60;99.90;;;;;;10498784;28;20197;-80
2021/12/20 05:47:22;;;;;;;23.60;19.43;;;6.60;99.90;;;;;;10497811;28;20220;-78
2021/12/20 05:52:24;;;;;;;19.77;17.20;;;6.60;99.90;;;;;;10496938;28;20203;-79
2021/12/20 05:57:28;;;;;;;21.10;18.10;;;6.60;99.90;;;;;;10498216;28;20220;-80
2021/12/20 06:02:30;;;;;;;21.60;16.97;;;6.60;99.90;;;;;;10499315;28;20196;-80
2021/12/20 06:07:32;;;;;;;21.27;18.00;;;6.60;99.90;;;;;;10498328;28;20216;-80
2021/12/20 06:12:36;;;;;;;20.40;16.37;;;6.70;99.90;;;;;;10500995;28;20192;-80
2021/12/20 06:17:39;;;;;;;18.53;16.20;;;6.70;99.90;;;;;;10504628;28;20213;-80
2021/12/20 06:22:41;;;;;;;19.80;16.20;;;6.70;99.90;;;;;;10505948;28;20185;-80
2021/12/20 06:27:47;;;;;;;17.13;15.33;;;6.70;99.90;;;;;;10508267;28;20216;-80
2021/12/20 06:32:49;;;;;;;17.47;14.83;;;6.70;99.90;;;;;;10506685;28;20201;-80
2021/12/20 06:37:59;;;;;;;16.10;14.03;;;6.70;99.90;;;;;;10506002;28;20212;-79
2021/12/20 06:43:04;;;;;;;15.63;13.23;;;6.70;99.90;;;;;;10509640;28;20197;-80
2021/12/20 06:48:07;;;;;;;16.10;14.37;;;6.70;99.90;;;;;;10506986;28;20216;-80
2021/12/20 06:53:09;;;;;;;17.20;15.13;;;6.70;99.90;;;;;;10506249;28;20201;-79
2021/12/20 06:58:13;;;;;;;18.07;14.67;;;6.70;99.90;;;;;;10502746;28;20715;-79
2021/12/20 07:03:15;;;;;;;18.43;15.23;;;6.70;99.90;;;;;;10489287;28;20201;-78
2021/12/20 07:08:17;;;;;;;18.60;15.97;;;6.70;99.90;;;;;;10504208;28;20229;-80
2021/12/20 07:13:21;;;;;;;19.80;17.30;;;6.70;99.90;;;;;;10504461;28;20196;-79
2021/12/20 07:18:23;;;;;;;22.30;17.20;;;6.70;99.90;;;;;;10505235;28;20706;-79
2021/12/20 07:23:26;;;;;;;22.30;17.57;;;6.80;99.90;;;;;;10505069;28;20196;-80
2021/12/20 07:28:29;;;;;;;19.70;16.10;;;6.80;99.90;;;;;;10505238;28;20216;-80
2021/12/20 07:33:31;;;;;;;20.30;16.77;;;6.80;99.90;;;;;;10503917;28;20201;-79
2021/12/20 07:38:35;;;;;;;20.67;17.73;;;6.80;99.90;;;;;;10503102;28;20589;-79
2021/12/20 07:43:38;;;;;;;20.13;17.17;;;6.80;99.90;;;;;;10498962;28;20201;-79
2021/12/20 07:48:41;;;;;;;19.33;17.23;;;6.80;99.90;;;;;;10505399;28;20216;-80
2021/12/20 07:53:43;;;;;;;20.20;18.03;;;6.70;99.90;;;;;;10502903;28;20197;-78
2021/12/20 07:58:46;;;;;;;18.60;16.67;;;6.70;99.90;;;;;;10488858;28;20319;-79
2021/12/20 08:03:49;;;;;;;17.77;15.87;;;6.70;99.90;;;;;;10485721;28;20197;-79
2021/12/20 08:08:51;;;;;;;20.10;17.20;;;6.70;99.90;;;;;;10505872;28;20220;-79
2021/12/20 08:13:55;;;;;;;19.27;17.20;;;6.70;99.90;;;;;;10503324;28;20199;-79
2021/12/20 08:18:57;;;;;;;18.57;16.13;;;6.80;99.90;;;;;;10501765;28;20219;-79
2021/12/20 08:23:59;;;;;;;17.27;15.50;;;6.80;99.90;;;;;;10503608;28;20645;-80
2021/12/20 08:29:03;;;;;;;18.67;16.67;;;6.80;99.90;;;;;;10503028;28;20295;-79
2021/12/20 08:34:05;;;;;;;20.00;17.90;;;6.90;99.90;;;;;;10501559;28;20216;-79
2021/12/20 08:39:07;;;;;;;17.67;15.77;;;6.90;99.90;;;;;;10503807;28;20211;-80
2021/12/20 08:44:11;;;;;;;22.77;18.23;;;7.00;99.90;;;;;;10502523;28;20189;-78
2021/12/20 08:49:13;;;;;;;21.87;17.80;;;7.00;99.90;;;;;;10503823;28;20298;-79
2021/12/20 08:54:16;;;;;;;20.37;17.27;;;7.10;99.90;;;;;;10503448;28;20196;-78
2021/12/20 08:59:19;;;;;;;27.53;21.43;;;7.20;99.90;;;;;;10502370;28;20223;-79
2021/12/20 09:04:22;;;;;;;26.53;21.17;;;7.20;99.90;;;;;;10501082;28;20185;-79
2021/12/20 09:09:24;;;;;;;26.83;21.90;;;7.30;99.90;;;;;;10501429;28;20216;-80
2021/12/20 09:14:28;;;;;;;28.10;22.00;;;7.40;99.90;;;;;;10501633;28;20192;-79
2021/12/20 09:19:30;;;;;;;25.20;20.70;;;7.50;99.90;;;;;;10502504;28;20235;-80
2021/12/20 09:24:34;;;;;;;30.17;22.77;;;7.60;99.90;;;;;;10502272;28;20271;-79
2021/12/20 09:29:37;;;;;;;28.20;22.07;;;7.70;99.90;;;;;;10502027;28;20217;-80
2021/12/20 09:34:39;;;;;;;27.57;20.77;;;7.70;99.90;;;;;;10503274;28;20219;-79
2021/12/20 09:39:42;;;;;;;25.90;20.50;;;7.70;99.90;;;;;;10501775;28;20681;-79
2021/12/20 09:44:46;;;;;;;24.07;20.73;;;7.80;99.90;;;;;;10498141;28;20200;-78
2021/12/20 09:49:48;;;;;;;26.63;20.60;;;7.80;99.90;;;;;;10497986;28;20302;-80
2021/12/20 09:54:50;;;;;;;26.00;21.87;;;7.80;99.90;;;;;;10500589;28;20196;-79
2021/12/20 09:59:54;;;;;;;28.47;22.03;;;7.80;99.90;;;;;;10498639;28;20230;-79
2021/12/20 10:04:56;;;;;;;29.57;23.83;;;7.80;99.90;;;;;;10497011;28;20195;-79
2021/12/20 10:10:00;;;;;;;31.73;24.20;;;7.80;99.90;;;;;;10498402;28;20247;-79
2021/12/20 10:15:06;;;;;;;32.03;24.60;;;7.90;99.90;;;;;;10499207;28;20603;-79
2021/12/20 10:20:15;;;;;;;29.37;23.80;;;7.90;99.90;;;;;;10479687;28;20247;-79
2021/12/20 10:25:23;;;;;;;30.50;22.70;;;8.00;99.90;;;;;;10496547;28;20204;-78
2021/12/20 10:30:29;;;;;;;24.67;21.07;;;8.10;99.90;;;;;;10497903;28;20530;-79
2021/12/20 10:35:38;;;;;;;21.63;19.10;;;8.20;99.90;;;;;;10496698;28;20572;-78
2021/12/20 10:40:48;;;;;;;24.80;20.37;;;8.00;99.90;;;;;;10497586;28;20294;-78
2021/12/20 10:45:54;;;;;;;20.23;17.13;;;7.90;99.90;;;;;;10497812;28;20311;-79
2021/12/20 10:50:56;;;;;;;25.00;19.43;;;7.80;99.90;;;;;;10499313;28;20286;-79
2021/12/20 10:56:00;;;;;;;23.10;19.13;;;7.70;99.90;;;;;;10498888;28;20236;-79
2021/12/20 11:01:36;;;;;;;21.93;17.57;;;7.70;99.90;;;;;;10504603;28;20615;-79
2021/12/20 11:11:57;;;;;;;19.47;15.00;;;7.80;99.90;;;;;;10508587;28;20250;-79
2021/12/20 11:17:01;;;;;;;18.10;15.70;;;7.80;99.90;;;;;;10506069;28;20217;-79
2021/12/20 11:22:07;;;;;;;18.27;16.37;;;7.70;99.90;;;;;;10490957;28;20192;-80
2021/12/20 11:27:11;;;;;;;20.20;16.03;;;7.70;99.90;;;;;;10509378;28;20232;-79
2021/12/20 11:32:16;;;;;;;19.97;15.97;;;7.60;99.90;;;;;;10507217;28;20280;-79
2021/12/20 11:37:20;;;;;;;21.03;16.40;;;7.60;99.90;;;;;;10505109;28;20216;-79
2021/12/20 11:42:23;;;;;;;22.33;14.97;;;7.60;99.90;;;;;;10505320;28;20199;-79
2021/12/20 11:47:31;;;;;;;16.33;13.57;;;7.60;99.90;;;;;;10503696;28;20311;-79
2021/12/20 11:52:38;;;;;;;17.50;13.87;;;7.80;99.90;;;;;;10504230;28;20191;-79
2021/12/20 11:57:45;;;;;;;17.10;13.63;;;8.00;99.90;;;;;;10503600;28;20212;-77
2021/12/20 12:02:50;;;;;;;16.17;13.47;;;8.10;99.90;;;;;;10499527;28;20197;-77
2021/12/20 12:07:52;;;;;;;16.90;14.40;;;8.20;99.90;;;;;;10500663;28;20277;-77
2021/12/20 12:13:00;;;;;;;22.00;16.90;;;8.30;99.90;;;;;;10498688;28;20201;-78
2021/12/20 12:18:04;;;;;;;21.30;16.53;;;8.40;99.90;;;;;;10481732;28;20232;-77
2021/12/20 12:23:12;;;;;;;18.70;15.97;;;8.40;99.90;;;;;;10498898;28;20204;-77
2021/12/20 12:28:16;;;;;;;20.83;15.30;;;8.50;99.90;;;;;;10499829;28;20231;-78
2021/12/20 12:33:31;;;;;;;17.67;15.10;;;8.50;99.90;;;;;;10499653;28;20275;-77
2021/12/20 12:38:36;;;;;;;18.27;14.97;;;8.50;99.90;;;;;;10497760;28;20208;-78
2021/12/20 12:43:55;;;;;;;18.10;13.77;;;8.50;99.90;;;;;;10500178;28;20271;-77
2021/12/20 12:48:58;;;;;;;16.37;13.70;;;8.50;99.90;;;;;;10498628;28;20220;-78
2021/12/20 12:54:00;;;;;;;15.90;13.73;;;8.50;99.90;;;;;;10497640;28;20193;-78
2021/12/20 12:59:23;;;;;;;14.80;12.60;;;8.50;99.90;;;;;;10498090;28;20649;-77
2021/12/20 13:04:45;;;;;;;17.70;12.60;;;8.40;99.90;;;;;;10497175;28;20207;-77
2021/12/20 13:09:47;;;;;;;17.50;13.60;;;8.30;99.90;;;;;;10497319;28;20681;-78
2021/12/20 13:14:56;;;;;;;15.73;13.13;;;8.10;99.90;;;;;;10498646;28;20558;-78
2021/12/20 13:20:19;;;;;;;17.33;14.33;;;8.00;99.90;;;;;;10495573;28;20232;-78
2021/12/20 13:25:48;;;;;;;19.03;15.43;;;7.90;99.90;;;;;;10497036;28;20200;-77
2021/12/20 13:30:53;;;;;;;18.13;14.70;;;7.80;99.90;;;;;;10497939;28;20242;-77
2021/12/20 13:36:00;;;;;;;17.50;14.43;;;7.70;99.90;;;;;;10499649;28;20583;-77
2021/12/20 13:41:05;;;;;;;18.90;16.27;;;7.70;99.90;;;;;;10479071;28;20657;-78
2021/12/20 13:46:15;;;;;;;15.13;12.63;;;7.70;99.90;;;;;;10495743;28;20222;-77
2021/12/20 13:51:20;;;;;;;18.50;15.53;;;7.60;99.90;;;;;;10496203;28;20718;-78
2021/12/20 13:56:22;;;;;;;17.73;15.10;;;7.60;99.90;;;;;;10498393;28;20280;-78
2021/12/20 14:01:25;;;;;;;17.37;13.57;;;7.50;99.90;;;;;;10479839;28;20197;-78
2021/12/20 14:06:41;;;;;;;18.57;12.67;;;7.50;99.90;;;;;;10498280;28;20209;-79
2021/12/20 14:11:43;;;;;;;15.60;12.57;;;7.40;99.90;;;;;;10496689;28;20222;-78
2021/12/20 14:17:04;;;;;;;16.83;12.50;;;7.30;99.90;;;;;;10497822;28;20296;-78
2021/12/20 14:22:07;;;;;;;15.67;11.60;;;7.20;99.90;;;;;;10498141;28;20284;-78
2021/12/20 14:27:09;;;;;;;12.83;11.43;;;7.20;99.90;;;;;;10498454;28;20278;-78
2021/12/20 14:32:14;;;;;;;14.67;12.10;;;7.10;99.90;;;;;;10500159;28;20185;-78
2021/12/20 14:37:18;;;;;;;14.80;12.37;;;7.10;99.90;;;;;;10487717;28;20575;-78
2021/12/20 14:42:20;;;;;;;16.00;11.47;;;7.10;99.90;;;;;;10504504;28;20229;-78
2021/12/20 14:47:32;;;;;;;14.90;10.20;;;7.20;99.90;;;;;;10503172;28;20247;-78
2021/12/20 14:52:39;;;;;;;19.50;10.90;;;7.20;99.90;;;;;;10505576;28;20254;-77
2021/12/20 14:57:49;;;;;;;18.00;12.67;;;7.10;99.90;;;;;;10486349;28;20259;-78
2021/12/20 15:02:51;;;;;;;16.83;11.87;;;7.10;99.90;;;;;;10504852;28;20660;-78
2021/12/20 15:07:55;;;;;;;14.43;10.90;;;7.00;99.90;;;;;;10504106;28;20219;-78
2021/12/20 15:12:57;;;;;;;15.70;10.93;;;7.00;99.90;;;;;;10504028;28;20256;-77
2021/12/20 15:17:59;;;;;;;14.57;10.93;;;6.90;99.90;;;;;;10504565;28;20212;-78
2021/12/20 15:23:02;;;;;;;13.70;10.80;;;6.70;99.90;;;;;;10505109;28;20199;-78
2021/12/20 15:28:05;;;;;;;15.80;11.77;;;6.60;99.90;;;;;;10502794;28;20315;-78
2021/12/20 15:33:10;;;;;;;12.70;10.73;;;6.50;99.90;;;;;;10503313;28;20188;-78
2021/12/20 15:38:14;;;;;;;20.13;11.90;;;6.30;99.90;;;;;;10504129;28;20258;-78
2021/12/20 15:43:16;;;;;;;13.40;9.97;;;6.20;99.90;;;;;;10502030;28;20215;-78
2021/12/20 15:48:20;;;;;;;17.93;15.00;;;6.10;99.90;;;;;;10502276;28;20680;-78
2021/12/20 15:53:32;;;;;;;25.83;22.43;;;5.90;99.90;;;;;;10502812;28;20685;-78
2021/12/20 15:58:35;;;;;;;14.80;10.90;;;5.80;99.90;;;;;;10502747;28;20270;-78
2021/12/20 16:03:37;;;;;;;13.97;11.40;;;5.70;99.90;;;;;;10483530;28;20197;-77
2021/12/20 16:08:40;;;;;;;12.23;9.80;;;5.60;99.90;;;;;;10500221;28;20217;-76
2021/12/20 16:13:42;;;;;;;58.43;37.23;;;5.50;99.90;;;;;;10498123;28;20207;-76
2021/12/20 16:18:45;;;;;;;28.63;19.70;;;5.50;99.90;;;;;;10497240;28;20238;-77
2021/12/20 16:23:48;;;;;;;54.70;42.30;;;5.40;99.90;;;;;;10499304;28;20189;-76
2021/12/20 16:28:50;;;;;;;22.57;19.20;;;5.30;99.90;;;;;;10497467;28;20228;-77
2021/12/20 16:33:52;;;;;;;18.30;15.50;;;5.30;99.90;;;;;;10481150;28;20201;-77
2021/12/20 16:38:58;;;;;;;21.57;16.13;;;5.20;99.90;;;;;;10497111;28;20212;-78
2021/12/20 16:44:02;;;;;;;17.90;12.10;;;5.20;99.90;;;;;;10498199;28;20641;-77
2021/12/20 16:49:10;;;;;;;18.33;12.60;;;5.20;99.90;;;;;;10496429;28;20220;-77
2021/12/20 16:54:14;;;;;;;14.63;11.60;;;5.10;99.90;;;;;;10496675;28;20188;-77
2021/12/20 16:59:16;;;;;;;14.67;9.90;;;5.10;99.90;;;;;;10496341;28;20223;-78
2021/12/20 17:04:37;;;;;;;15.10;10.43;;;5.00;99.90;;;;;;10497405;28;20204;-78
2021/12/20 17:09:41;;;;;;;11.17;9.07;;;5.00;99.90;;;;;;10496293;28;20627;-77
2021/12/20 17:14:43;;;;;;;13.30;9.10;;;4.90;99.90;;;;;;10496739;28;20223;-77
2021/12/20 17:19:46;;;;;;;11.67;7.80;;;4.80;99.90;;;;;;10496594;28;20750;-78
2021/12/20 17:24:49;;;;;;;16.70;11.60;;;4.70;99.90;;;;;;10497121;28;20189;-78
2021/12/20 17:29:51;;;;;;;14.83;10.80;;;4.70;99.90;;;;;;10497923;28;20230;-78
2021/12/20 17:34:53;;;;;;;14.77;10.40;;;4.70;99.90;;;;;;10496341;28;20736;-77
2021/12/20 17:39:57;;;;;;;11.00;9.20;;;4.70;99.90;;;;;;10496340;28;20216;-78
2021/12/20 17:44:59;;;;;;;13.03;9.10;;;4.60;99.90;;;;;;10496305;28;20196;-77
2021/12/20 17:50:01;;;;;;;12.03;9.97;;;4.50;99.90;;;;;;10497034;28;20786;-77
2021/12/20 17:55:06;;;;;;;11.77;8.17;;;4.50;99.90;;;;;;10494580;28;20204;-77
2021/12/20 18:00:12;;;;;;;9.80;8.10;;;4.50;99.90;;;;;;10495639;28;20264;-78
2021/12/20 18:05:15;;;;;;;13.70;8.87;;;4.50;99.90;;;;;;10494984;28;20203;-77
2021/12/20 18:10:18;;;;;;;11.30;8.20;;;4.50;99.90;;;;;;10509530;28;20629;-77
2021/12/20 18:15:21;;;;;;;11.80;8.67;;;4.50;99.90;;;;;;10510013;28;20192;-79
2021/12/20 18:20:26;;;;;;;13.70;9.33;;;4.40;99.90;;;;;;10511392;28;20292;-79
2021/12/20 18:25:33;;;;;;;12.13;10.60;;;4.30;99.90;;;;;;10511533;28;20217;-79
2021/12/20 18:30:36;;;;;;;14.70;10.00;;;4.30;99.90;;;;;;10511733;28;20316;-79
2021/12/20 18:35:39;;;;;;;18.80;13.80;;;4.20;99.90;;;;;;10511806;28;20203;-80
2021/12/20 18:40:43;;;;;;;16.00;9.47;;;4.30;99.90;;;;;;10511832;28;20192;-79
2021/12/20 18:45:45;;;;;;;16.07;9.77;;;4.20;99.90;;;;;;10512371;28;20192;-79
2021/12/20 18:50:48;;;;;;;18.27;12.30;;;4.20;99.90;;;;;;10513391;28;20649;-80
2021/12/20 18:55:52;;;;;;;43.00;25.97;;;4.20;99.90;;;;;;10512215;28;20683;-80
2021/12/20 19:00:54;;;;;;;14.60;9.50;;;4.10;99.90;;;;;;10510579;28;20264;-79
2021/12/20 19:05:57;;;;;;;8.53;6.60;;;4.10;99.90;;;;;;10510735;28;20499;-78
2021/12/20 19:11:07;;;;;;;9.87;7.73;;;4.00;99.90;;;;;;10510744;28;20273;-79
2021/12/20 19:16:09;;;;;;;11.03;6.60;;;4.00;99.90;;;;;;10509617;28;20555;-79
2021/12/20 19:21:12;;;;;;;11.87;7.37;;;4.00;99.90;;;;;;10503242;28;20189;-79
2021/12/20 19:26:15;;;;;;;18.20;12.30;;;4.00;99.90;;;;;;10504732;28;20244;-80
2021/12/20 19:31:17;;;;;;;11.93;9.00;;;4.00;99.90;;;;;;10505602;28;20224;-78
2021/12/20 19:36:21;;;;;;;16.00;13.33;;;3.90;99.90;;;;;;10500892;28;20758;-79
2021/12/20 19:41:24;;;;;;;12.37;8.67;;;3.90;99.90;;;;;;10506628;28;20600;-79
2021/12/20 19:46:27;;;;;;;15.13;11.10;;;3.90;99.90;;;;;;10505029;28;20220;-79
2021/12/20 19:51:29;;;;;;;11.87;10.07;;;3.80;99.90;;;;;;10507809;28;20228;-78
2021/12/20 19:56:33;;;;;;;7.70;6.90;;;3.80;99.90;;;;;;10503575;28;20704;-79
2021/12/20 20:01:35;;;;;;;14.83;9.60;;;3.80;99.90;;;;;;10504161;28;20228;-77
2021/12/20 20:06:38;;;;;;;10.20;8.97;;;3.70;99.90;;;;;;10506800;28;20231;-79
2021/12/20 20:11:42;;;;;;;10.37;7.13;;;3.70;99.90;;;;;;10507351;28;20688;-79
2021/12/20 20:16:45;;;;;;;8.60;6.30;;;3.60;99.90;;;;;;10508416;28;20213;-79
2021/12/20 20:21:47;;;;;;;11.93;7.13;;;3.60;99.90;;;;;;10504507;28;20205;-79
2021/12/20 20:26:50;;;;;;;10.57;6.70;;;3.60;99.90;;;;;;10484933;28;20219;-78
2021/12/20 20:31:52;;;;;;;8.63;7.00;;;3.60;99.90;;;;;;10502367;28;20193;-78
2021/12/20 20:36:54;;;;;;;12.13;7.20;;;3.60;99.90;;;;;;10502861;28;20240;-80
2021/12/20 20:41:59;;;;;;;9.33;7.40;;;3.60;99.90;;;;;;10501558;28;20309;-78
2021/12/20 20:47:02;;;;;;;8.73;7.63;;;3.60;99.90;;;;;;10500382;28;20688;-80
2021/12/20 20:52:05;;;;;;;10.83;7.50;;;3.60;99.90;;;;;;10502743;28;20188;-78
2021/12/20 20:57:10;;;;;;;9.90;7.53;;;3.50;99.90;;;;;;10504302;28;20647;-78
2021/12/20 21:02:12;;;;;;;9.67;7.67;;;3.50;99.90;;;;;;10506582;28;20197;-80
2021/12/20 21:07:14;;;;;;;11.03;8.83;;;3.50;99.90;;;;;;10506968;28;20707;-79
2021/12/20 21:12:19;;;;;;;9.43;8.00;;;3.50;99.90;;;;;;10505828;28;20254;-79
2021/12/20 21:17:22;;;;;;;15.43;11.27;;;3.50;99.90;;;;;;10506356;28;20208;-78
2021/12/20 21:22:24;;;;;;;13.10;10.10;;;3.40;99.90;;;;;;10505401;28;20712;-79
2021/12/20 21:27:27;;;;;;;15.67;9.77;;;3.40;99.90;;;;;;10501869;28;20583;-78
2021/12/20 21:32:29;;;;;;;12.90;10.00;;;3.40;99.90;;;;;;10503991;28;20267;-78
2021/12/20 21:37:31;;;;;;;11.33;8.83;;;3.40;99.90;;;;;;10501083;28;20216;-79
2021/12/20 21:42:35;;;;;;;12.83;8.33;;;3.30;99.90;;;;;;10498752;28;20199;-78
2021/12/20 21:47:38;;;;;;;12.37;9.10;;;3.30;99.90;;;;;;10498544;28;20303;-78
2021/12/20 21:52:41;;;;;;;8.63;7.60;;;3.30;99.90;;;;;;10498698;28;20198;-78
2021/12/20 21:57:44;;;;;;;9.23;6.73;;;3.30;99.90;;;;;;10499409;28;20220;-77
2021/12/20 22:02:47;;;;;;;8.90;7.53;;;3.20;99.90;;;;;;10497566;28;20201;-78
2021/12/20 22:07:49;;;;;;;7.60;6.00;;;3.20;99.90;;;;;;10498189;28;20617;-79
2021/12/20 22:12:52;;;;;;;9.10;6.67;;;3.20;99.90;;;;;;10499957;28;20654;-79
2021/12/20 22:17:54;;;;;;;9.07;6.70;;;3.20;99.90;;;;;;10496846;28;20266;-79
2021/12/20 22:22:57;;;;;;;11.23;6.90;;;3.10;99.90;;;;;;10500426;28;20264;-79
2021/12/20 22:28:00;;;;;;;11.07;7.27;;;3.10;99.90;;;;;;10500099;28;20221;-79
2021/12/20 22:33:02;;;;;;;10.33;6.50;;;3.10;99.90;;;;;;10500905;28;20189;-79
2021/12/20 22:38:04;;;;;;;11.87;7.90;;;3.10;99.90;;;;;;10499182;28;20247;-79
2021/12/20 22:43:13;;;;;;;11.60;7.50;;;3.10;99.90;;;;;;10501785;28;20184;-79
2021/12/20 22:48:15;;;;;;;13.50;8.20;;;3.10;99.90;;;;;;10497720;28;20696;-79
2021/12/20 22:53:18;;;;;;;14.10;8.07;;;3.10;99.90;;;;;;10500465;28;20232;-79
2021/12/20 22:58:21;;;;;;;14.87;9.00;;;3.10;99.90;;;;;;10506138;28;20315;-79
2021/12/20 23:03:23;;;;;;;11.00;7.90;;;3.10;99.90;;;;;;10510921;28;20196;-78
2021/12/20 23:08:28;;;;;;;11.07;8.10;;;3.00;99.90;;;;;;10505264;28;20222;-79
2021/12/20 23:13:37;;;;;;;11.43;6.83;;;3.10;99.90;;;;;;10490322;28;20197;-79
2021/12/20 23:18:39;;;;;;;9.00;7.77;;;3.10;99.90;;;;;;10507418;28;20212;-77
2021/12/20 23:23:43;;;;;;;14.23;8.47;;;3.00;99.90;;;;;;10505801;28;20254;-78
2021/12/20 23:28:47;;;;;;;10.87;7.57;;;3.00;99.90;;;;;;10505774;28;20710;-79
2021/12/20 23:33:51;;;;;;;12.90;7.60;;;3.00;99.90;;;;;;10503668;28;20268;-78
2021/12/20 23:38:57;;;;;;;9.87;7.40;;;2.90;99.90;;;;;;10504915;28;20383;-79
2021/12/20 23:44:01;;;;;;;9.93;7.53;;;2.90;99.90;;;;;;10506277;28;20196;-79
2021/12/20 23:49:03;;;;;;;10.33;7.33;;;2.90;99.90;;;;;;10503734;28;20239;-79
2021/12/20 23:54:06;;;;;;;11.23;8.63;;;2.90;99.90;;;;;;10503652;28;20205;-79
2021/12/20 23:59:10;;;;;;;8.40;6.50;;;2.90;99.90;;;;;;10503678;28;20568;-80
